TTCPTTPP

Guest
Details From TTCP - Tobago/Crown Point Intl
To TTPP - Trinidad/Piarco Intl
Flight Number -
Tags generated
Created
Modified
Stats Distance 45 nm / 83 km
Max Altitude 0 ft / 0 m
Waypoints 3
Social Downloads 1
Likes 0
Share VATSIM

Download

Looking for another format? Having issues loading an existing format? Contact us
Advertisement - Login to hide

Notes

Basic altitude profile: - Ascent Rate: 2500ft/min - Ascent Speed: 250kts - Cruise Altitude: 35000ft - Cruise Speed: 420kts - Descent Rate: 1500ft/min - Descent Speed: 250kts Options: - Use NATs: yes - Use PACOTS: yes - Use low airways: yes - Use high airways: no

Route

TTCP TAB TTPP

ID Type Via Altitude Latitude Longitude Leg Dist Tot Dist Heading (true) Name
O TTCP APT - 0 ft / 0 m 11.14966˚ -60.83220˚ - 0 nm - Tobago/Crown Point Intl
TAB NDB - 0 ft / 0 m 11.14742˚ -60.83353˚ 0 nm 0 nm 210° / 210° CROWN POINT NDB
O TTPP APT - 0 ft / 0 m 10.59537˚ -61.33724˚ 44 nm 44 nm 222° / 222° Trinidad/Piarco Intl

Altitude Profile

Advertisement - Login to hide

TTCP

Details ICAO TTCP (TAB)
Name Tobago/Crown Point Intl
Region Trinidad and Tobago
Timezone America/Port_of_Spain (UTC-4.0)
Stats Elevation 36 ft / 11 m (AMSL)
Location 11.149660° -60.832196°
Runways 1
Magnetic Variation 15.193° W

METAR

TTCP 161200Z 09003KT 9999 VCSH FEW016 27/23 Q1015 NOSIG RMK VCSH NE/ S

Decode

TAF

Not found

Departure Runways

ID Width Length Bearing (true) Bearing (mag) Surface Threshold Offset Overrun Length
11 148 ft / 45 m 8,995 ft / 2,742 m 94.17° 109.36° Asphalt 1,004 ft / 306 m 0 ft / 0 m
29 148 ft / 45 m 8,995 ft / 2,742 m 274.17° 289.36° Asphalt 0 ft / 0 m 299 ft / 91 m

TTPP

Details ICAO TTPP (POS)
Name Trinidad/Piarco Intl
Region Trinidad and Tobago
Timezone America/Port_of_Spain (UTC-4.0)
Stats Elevation 57 ft / 17 m (AMSL)
Location 10.595370° -61.337239°
Runways 1
Magnetic Variation 15.001° W

METAR

TTPP 161200Z 00000KT 9999 VCSH FEW018 26/22 Q1015 NOSIG RMK SW

Decode

TAF

Not found

Destination Runways

ID Width Length Bearing (true) Bearing (mag) Surface Threshold Offset Overrun Length
10 151 ft / 46 m 10,486 ft / 3,196 m 89.83° 104.83° Asphalt 0 ft / 0 m 79 ft / 24 m
28 151 ft / 46 m 10,486 ft / 3,196 m 269.84° 284.84° Asphalt 0 ft / 0 m 184 ft / 56 m

Approach Navaids

Runway Type Ident Frequency Range Bearing (true) Bearing (mag) Slope Elevation
10 Localiser IPOS 109.70 MHz 18 nm / 33 km 89.49° 104.49° - 57 ft / 17 m (AMSL)
10 Glidescope IPOS 109.70 MHz 10 nm / 19 km 89.83° 104.84° 3.00° 57 ft / 17 m (AMSL)
10 DME IPOS 109.70 MHz 18 nm / 33 km - - - 57 ft / 17 m (AMSL)

Popular Alternatives